Terminal Aerodrome Forecast
Issued by NWS

Home | Current Version | Previous Version | Text Only | Print | Product List | Glossary Off
Versions: 1 2 3 4 5 6 7 8 9 10 11 12 13 14 15 16 17 18 19 20 21 22 23 24 25 26

000
FTUS43 KBIS 271500 AAC
TAFMOT
TAF AMD
KMOT 271547Z 2716/2812 31009KT P6SM SCT007 OVC035
      TEMPO 2716/2717 5SM -RA BR BKN007 OVC025
     FM271700 31009KT P6SM OVC025
     FM272100 32006KT P6SM SCT050=

USA.gov is the U.S. government's official web portal to all federal, state and local government web resources and services.